createdAt,value
2022-11-06T00:00:24.489Z,2.92
2022-11-06T00:00:47.220Z,3.08
2022-11-06T00:01:11.064Z,3.30
2022-11-06T00:01:33.877Z,3.40
2022-11-06T00:01:57.034Z,3.05
2022-11-06T00:02:23.289Z,2.80
2022-11-06T00:02:46.350Z,2.90
2022-11-06T00:03:09.358Z,3.05
2022-11-06T00:03:34.548Z,2.53
2022-11-06T00:03:57.298Z,2.60
2022-11-06T00:04:21.455Z,2.60
2022-11-06T00:04:44.098Z,2.40
2022-11-06T00:05:26.554Z,2.30
2022-11-06T00:06:07.799Z,2.50
2022-11-06T00:06:49.168Z,2.47
2022-11-06T00:07:11.919Z,2.80
2022-11-06T00:07:35.687Z,2.67
2022-11-06T00:07:58.298Z,2.33
2022-11-06T00:08:29.453Z,2.63
2022-11-06T00:08:52.154Z,3.03
2022-11-06T00:09:15.938Z,2.97
2022-11-06T00:09:38.786Z,3.35
2022-11-06T00:10:01.434Z,2.90
2022-11-06T00:10:24.125Z,3.03
2022-11-06T00:10:46.833Z,2.85
2022-11-06T00:11:10.900Z,2.70
2022-11-06T00:11:33.598Z,2.97
2022-11-06T00:11:59.667Z,2.60
2022-11-06T00:12:22.388Z,2.60
2022-11-06T00:12:45.266Z,2.40
2022-11-06T00:13:07.979Z,2.40
2022-11-06T00:13:33.251Z,2.50
2022-11-06T00:13:55.998Z,2.65
2022-11-06T00:14:21.412Z,2.70
2022-11-06T00:14:44.076Z,2.67
2022-11-06T00:15:09.981Z,2.42
2022-11-06T00:15:33.657Z,2.40
2022-11-06T00:15:56.356Z,2.13
2022-11-06T00:16:19.438Z,2.33
2022-11-06T00:16:42.422Z,2.00
2022-11-06T00:17:05.141Z,2.58
2022-11-06T00:17:29.128Z,2.30
2022-11-06T00:17:51.843Z,2.15
2022-11-06T00:18:14.909Z,2.42
2022-11-06T00:18:38.183Z,2.30
2022-11-06T00:19:01.981Z,2.22
2022-11-06T00:19:26.263Z,1.92
2022-11-06T00:19:48.963Z,2.10
2022-11-06T00:20:11.758Z,1.83
2022-11-06T00:20:34.582Z,2.03
2022-11-06T00:20:57.266Z,2.10
2022-11-06T00:21:20.875Z,2.10
2022-11-06T00:21:43.748Z,2.20
2022-11-06T00:22:06.913Z,2.42
2022-11-06T00:22:32.298Z,2.45
2022-11-06T00:22:55.266Z,2.13
2022-11-06T00:23:18.108Z,2.20
2022-11-06T00:23:40.838Z,2.13
2022-11-06T00:24:04.811Z,2.30
2022-11-06T00:24:27.611Z,2.15
2022-11-06T00:24:52.708Z,2.00
2022-11-06T00:25:15.665Z,2.03
2022-11-06T00:25:43.016Z,2.00
2022-11-06T00:26:07.205Z,1.80
2022-11-06T00:26:30.596Z,2.00
2022-11-06T00:26:54.692Z,1.83
2022-11-06T00:27:17.651Z,2.08
2022-11-06T00:27:43.126Z,2.35
2022-11-06T00:28:06.291Z,2.05
2022-11-06T00:28:31.371Z,2.08
2022-11-06T00:28:54.317Z,1.90
2022-11-06T00:29:17.978Z,2.00
2022-11-06T00:29:41.288Z,2.05
2022-11-06T00:30:04.488Z,1.85
2022-11-06T00:30:27.177Z,1.63
2022-11-06T00:30:49.920Z,1.77
2022-11-06T00:31:13.709Z,1.80
2022-11-06T00:31:37.469Z,2.10
2022-11-06T00:32:00.095Z,2.05
2022-11-06T00:32:22.848Z,2.08
2022-11-06T00:32:45.577Z,2.13
2022-11-06T00:33:10.738Z,2.10
2022-11-06T00:33:33.603Z,1.92
2022-11-06T00:34:00.334Z,1.90
2022-11-06T00:34:23.037Z,2.10
2022-11-06T00:34:49.502Z,2.15
2022-11-06T00:35:12.471Z,2.30
2022-11-06T00:35:37.512Z,2.20
2022-11-06T00:36:02.307Z,2.08
2022-11-06T00:36:25.678Z,2.40
2022-11-06T00:36:50.749Z,2.40
2022-11-06T00:37:13.443Z,2.40
2022-11-06T00:37:36.188Z,2.20
2022-11-06T00:37:58.937Z,2.40
2022-11-06T00:38:21.607Z,2.33
2022-11-06T00:38:44.322Z,2.22
2022-11-06T00:39:07.180Z,2.17
2022-11-06T00:39:29.938Z,1.88
2022-11-06T00:39:52.694Z,2.13
2022-11-06T00:40:15.488Z,2.20
2022-11-06T00:40:38.493Z,2.05
2022-11-06T00:41:02.913Z,2.08
2022-11-06T00:41:25.884Z,2.13
2022-11-06T00:41:48.653Z,2.40
2022-11-06T00:42:11.467Z,2.47
2022-11-06T00:42:34.169Z,2.63
2022-11-06T00:42:57.498Z,2.30
2022-11-06T00:43:20.218Z,2.35
2022-11-06T00:43:43.038Z,2.53
2022-11-06T00:44:05.747Z,2.72
2022-11-06T00:44:28.418Z,2.42
2022-11-06T00:44:51.218Z,2.50
2022-11-06T00:45:14.008Z,2.50
2022-11-06T00:45:36.713Z,2.75
2022-11-06T00:46:04.326Z,2.65
2022-11-06T00:46:27.766Z,2.70
2022-11-06T00:46:50.432Z,2.60
2022-11-06T00:47:13.156Z,2.53
2022-11-06T00:47:35.837Z,2.50
2022-11-06T00:47:58.570Z,2.20
2022-11-06T00:48:21.283Z,2.50
2022-11-06T00:48:47.226Z,2.30
2022-11-06T00:49:10.027Z,2.40
2022-11-06T00:49:32.636Z,2.45
2022-11-06T00:49:56.752Z,2.70
2022-11-06T00:50:19.581Z,2.55
2022-11-06T00:50:42.326Z,2.35
2022-11-06T00:51:05.291Z,2.28
2022-11-06T00:51:29.024Z,2.70
2022-11-06T00:51:51.841Z,2.38
2022-11-06T00:52:14.667Z,2.35
2022-11-06T00:52:37.426Z,1.90
2022-11-06T00:53:02.561Z,2.22
2022-11-06T00:53:25.283Z,2.20
2022-11-06T00:53:51.198Z,1.90
2022-11-06T00:54:13.987Z,2.22
2022-11-06T00:54:38.942Z,2.30
2022-11-06T00:55:01.919Z,2.03
2022-11-06T00:55:24.639Z,2.00
2022-11-06T00:55:47.362Z,2.05
2022-11-06T00:56:11.186Z,2.30
2022-11-06T00:56:34.683Z,2.10
2022-11-06T00:56:57.468Z,2.10
2022-11-06T00:57:20.493Z,2.00
2022-11-06T00:57:43.197Z,2.10
2022-11-06T00:58:05.917Z,1.90
2022-11-06T00:58:30.526Z,1.70
2022-11-06T00:58:53.358Z,1.92
2022-11-06T00:59:16.169Z,2.08
2022-11-06T00:59:39.487Z,2.03
2022-11-06T01:00:04.627Z,2.05
2022-11-06T01:00:27.462Z,2.20
2022-11-06T01:00:50.148Z,2.25
2022-11-06T01:01:16.261Z,2.10
2022-11-06T01:01:40.239Z,2.13
2022-11-06T01:02:03.221Z,2.30
2022-11-06T01:02:26.194Z,2.47
2022-11-06T01:02:49.314Z,2.42
2022-11-06T01:03:12.212Z,2.40
2022-11-06T01:03:34.962Z,2.55
2022-11-06T01:03:59.866Z,2.30
2022-11-06T01:04:23.932Z,2.40
2022-11-06T01:04:47.552Z,2.50
2022-11-06T01:05:11.763Z,2.35
2022-11-06T01:05:34.508Z,2.37
2022-11-06T01:06:03.617Z,2.30
2022-11-06T01:06:27.322Z,2.30
2022-11-06T01:06:51.288Z,2.30
2022-11-06T01:07:13.978Z,2.58
2022-11-06T01:07:36.754Z,2.20
2022-11-06T01:07:59.484Z,2.10
2022-11-06T01:08:22.198Z,2.38
2022-11-06T01:08:45.086Z,2.40
2022-11-06T01:09:07.982Z,2.33
2022-11-06T01:09:31.432Z,2.33
2022-11-06T01:09:54.083Z,2.55
2022-11-06T01:10:16.872Z,2.40
2022-11-06T01:10:39.682Z,2.50
2022-11-06T01:11:09.563Z,2.60
2022-11-06T01:11:52.356Z,2.63
2022-11-06T01:12:15.847Z,2.63
2022-11-06T01:12:38.884Z,2.72
2022-11-06T01:13:01.585Z,2.75
2022-11-06T01:13:24.317Z,2.40
2022-11-06T01:13:48.722Z,2.42
2022-11-06T01:14:12.482Z,3.00
2022-11-06T01:14:35.142Z,2.92
2022-11-06T01:14:57.822Z,3.45
2022-11-06T01:15:20.537Z,3.60
2022-11-06T01:15:45.729Z,3.70
2022-11-06T01:16:10.001Z,3.58
2022-11-06T01:16:32.847Z,4.20
2022-11-06T01:16:55.601Z,4.20
2022-11-06T01:17:18.345Z,4.18
2022-11-06T01:17:43.517Z,4.00
2022-11-06T01:18:06.227Z,4.10
2022-11-06T01:18:28.897Z,3.65
2022-11-06T01:18:52.157Z,3.60
2022-11-06T01:19:16.252Z,4.03
2022-11-06T01:19:39.101Z,3.92
2022-11-06T01:20:01.787Z,4.07
2022-11-06T01:20:26.407Z,3.80
2022-11-06T01:20:49.338Z,3.95
2022-11-06T01:21:13.377Z,4.20
2022-11-06T01:21:37.591Z,4.28
2022-11-06T01:22:00.302Z,4.38
2022-11-06T01:22:26.464Z,4.07
2022-11-06T01:22:50.397Z,3.95
2022-11-06T01:23:14.217Z,3.80
2022-11-06T01:23:36.821Z,3.90
2022-11-06T01:24:00.668Z,3.90
2022-11-06T01:24:24.468Z,3.97
2022-11-06T01:24:47.390Z,4.18
2022-11-06T01:25:11.342Z,4.43
2022-11-06T01:25:34.043Z,4.15
2022-11-06T01:25:58.263Z,4.20
2022-11-06T01:26:36.840Z,4.32
2022-11-06T01:27:43.669Z,4.50
2022-11-06T01:28:06.402Z,4.40
2022-11-06T01:28:29.287Z,4.22
2022-11-06T01:28:52.048Z,4.10
2022-11-06T01:29:16.157Z,4.28
2022-11-06T01:29:38.829Z,4.50
2022-11-06T01:30:01.599Z,4.65
2022-11-06T01:30:26.074Z,4.70
2022-11-06T01:30:51.283Z,4.63
2022-11-06T01:31:17.762Z,5.00
2022-11-06T01:31:40.478Z,4.70
2022-11-06T01:32:03.202Z,5.10
2022-11-06T01:32:25.902Z,5.00
2022-11-06T01:32:48.651Z,5.10
2022-11-06T01:33:11.678Z,4.88
2022-11-06T01:33:34.402Z,5.32
2022-11-06T01:33:59.422Z,5.15
2022-11-06T01:34:22.302Z,5.00
2022-11-06T01:34:47.261Z,4.97
2022-11-06T01:35:09.997Z,5.10
2022-11-06T01:35:34.142Z,5.43
2022-11-06T01:35:56.882Z,5.32
2022-11-06T01:36:22.382Z,5.20
2022-11-06T01:36:46.726Z,5.30
2022-11-06T01:37:14.180Z,5.10
2022-11-06T01:37:37.772Z,5.13
2022-11-06T01:38:03.529Z,5.68
2022-11-06T01:38:27.370Z,5.15
2022-11-06T01:38:52.733Z,5.35
2022-11-06T01:39:17.971Z,5.05
2022-11-06T01:39:40.718Z,5.15
2022-11-06T01:40:05.876Z,4.95
2022-11-06T01:40:28.588Z,4.93
2022-11-06T01:40:53.582Z,5.30
2022-11-06T01:41:17.598Z,5.53
2022-11-06T01:41:43.450Z,5.40
2022-11-06T01:42:06.347Z,5.28
2022-11-06T01:42:29.012Z,4.82
2022-11-06T01:42:53.987Z,4.88
2022-11-06T01:43:17.957Z,5.05
2022-11-06T01:43:45.952Z,5.68
2022-11-06T01:44:42.071Z,5.47
2022-11-06T01:45:26.832Z,5.88
2022-11-06T01:45:51.144Z,6.28
2022-11-06T01:46:16.187Z,5.85
2022-11-06T01:46:38.985Z,5.57
2022-11-06T01:47:03.344Z,5.60
2022-11-06T01:47:27.366Z,5.55
2022-11-06T01:47:50.282Z,5.32
2022-11-06T01:48:15.675Z,5.50
2022-11-06T01:48:39.522Z,5.25
2022-11-06T01:49:05.137Z,5.35
2022-11-06T01:49:29.012Z,5.40
2022-11-06T01:49:53.781Z,5.68
2022-11-06T01:50:16.647Z,5.47
2022-11-06T01:50:41.345Z,5.30
2022-11-06T01:51:06.802Z,5.50
2022-11-06T01:51:31.522Z,5.40
2022-11-06T01:51:55.362Z,5.43
2022-11-06T01:52:18.121Z,5.70
2022-11-06T01:52:43.037Z,5.53
2022-11-06T01:53:06.762Z,5.60
2022-11-06T01:53:31.962Z,5.75
2022-11-06T01:53:54.864Z,5.47
2022-11-06T01:54:17.517Z,4.97
2022-11-06T01:54:41.373Z,5.30
2022-11-06T01:55:07.913Z,4.70
2022-11-06T01:55:32.876Z,4.82
2022-11-06T01:55:56.568Z,5.30
2022-11-06T01:56:19.261Z,5.38
2022-11-06T01:56:42.006Z,5.13
2022-11-06T01:57:04.647Z,5.30
2022-11-06T01:57:27.297Z,5.03
2022-11-06T01:57:50.082Z,4.70
2022-11-06T01:58:15.957Z,4.80
2022-11-06T01:58:40.816Z,5.13
2022-11-06T01:59:03.613Z,4.68
2022-11-06T01:59:27.517Z,4.82
2022-11-06T01:59:51.027Z,4.90
2022-11-06T02:00:14.508Z,4.80
2022-11-06T02:00:39.614Z,4.57
2022-11-06T02:01:02.908Z,5.18
2022-11-06T02:01:25.743Z,4.80
2022-11-06T02:01:48.753Z,4.63
2022-11-06T02:02:11.778Z,4.88
2022-11-06T02:02:34.843Z,4.60
2022-11-06T02:02:57.886Z,4.95
2022-11-06T02:03:23.036Z,5.05
2022-11-06T02:03:50.383Z,4.80
2022-11-06T02:04:14.802Z,5.22
2022-11-06T02:04:39.096Z,5.45
2022-11-06T02:05:01.842Z,4.95
2022-11-06T02:05:26.907Z,4.90
2022-11-06T02:05:50.937Z,4.80
2022-11-06T02:06:13.758Z,4.78
2022-11-06T02:06:39.366Z,4.53
2022-11-06T02:07:02.048Z,4.85
2022-11-06T02:07:26.896Z,5.05
2022-11-06T02:07:49.597Z,4.82
2022-11-06T02:08:14.455Z,4.47
2022-11-06T02:08:37.667Z,4.55
2022-11-06T02:09:00.352Z,4.60
2022-11-06T02:09:23.043Z,5.05
2022-11-06T02:09:45.768Z,4.88
2022-11-06T02:10:09.861Z,5.10
2022-11-06T02:10:33.191Z,4.90
2022-11-06T02:10:56.161Z,5.00
2022-11-06T02:11:20.301Z,5.22
2022-11-06T02:11:44.336Z,5.22
2022-11-06T02:12:13.445Z,4.93
2022-11-06T02:12:56.241Z,4.93
2022-11-06T02:13:25.926Z,4.70
2022-11-06T02:13:56.657Z,5.03
2022-11-06T02:14:23.052Z,5.07
2022-11-06T02:14:54.077Z,4.68
2022-11-06T02:15:21.701Z,4.60
2022-11-06T02:15:47.901Z,5.18
2022-11-06T02:16:15.353Z,5.45
2022-11-06T02:16:42.211Z,5.45
2022-11-06T02:17:07.532Z,5.38
2022-11-06T02:17:44.965Z,4.88
2022-11-06T02:18:25.506Z,5.28
2022-11-06T02:19:01.511Z,4.97
2022-11-06T02:19:48.539Z,4.90
2022-11-06T02:20:13.576Z,5.32
2022-11-06T02:20:39.846Z,5.30
2022-11-06T02:21:39.037Z,5.10
2022-11-06T02:22:23.542Z,5.28
2022-11-06T02:23:05.921Z,5.38
2022-11-06T02:23:45.946Z,5.10
2022-11-06T02:24:27.637Z,5.20
2022-11-06T02:25:15.266Z,5.00
2022-11-06T02:25:47.643Z,5.50
2022-11-06T02:26:21.240Z,5.55
2022-11-06T02:27:02.961Z,5.30
2022-11-06T02:27:25.782Z,5.20
2022-11-06T02:27:51.123Z,5.18
2022-11-06T02:28:18.882Z,5.10
2022-11-06T02:28:43.847Z,5.28
2022-11-06T02:29:08.511Z,5.30
2022-11-06T02:29:33.567Z,4.97
2022-11-06T02:29:59.042Z,4.93
2022-11-06T02:30:21.821Z,5.13
2022-11-06T02:30:48.590Z,5.43
2022-11-06T02:31:14.987Z,5.38
2022-11-06T02:31:38.900Z,5.68
2022-11-06T02:32:04.960Z,5.80
2022-11-06T02:32:29.466Z,5.57
2022-11-06T02:32:57.482Z,5.45
2022-11-06T02:33:24.481Z,5.60
2022-11-06T02:33:49.277Z,5.50
2022-11-06T02:34:13.494Z,5.57
2022-11-06T02:34:36.352Z,5.65
2022-11-06T02:34:59.503Z,5.78
2022-11-06T02:35:24.246Z,5.15
2022-11-06T02:35:49.443Z,5.20
2022-11-06T02:36:14.790Z,5.40
2022-11-06T02:36:39.733Z,5.50
2022-11-06T02:37:07.271Z,5.45
2022-11-06T02:37:31.282Z,6.00
2022-11-06T02:37:58.386Z,5.70
2022-11-06T02:38:23.360Z,5.25
2022-11-06T02:38:49.336Z,5.20
2022-11-06T02:39:14.533Z,5.43
2022-11-06T02:39:37.332Z,5.53
2022-11-06T02:40:02.032Z,5.40
2022-11-06T02:40:25.691Z,5.60
2022-11-06T02:40:51.290Z,6.15
2022-11-06T02:41:16.327Z,6.18
2022-11-06T02:41:41.430Z,5.60
2022-11-06T02:42:06.269Z,5.95
2022-11-06T02:42:29.497Z,6.10
2022-11-06T02:42:54.251Z,5.57
2022-11-06T02:43:16.926Z,5.60
2022-11-06T02:43:40.781Z,6.00
2022-11-06T02:44:04.212Z,6.00
2022-11-06T02:44:28.172Z,5.93
2022-11-06T02:44:51.640Z,5.72
2022-11-06T02:45:17.595Z,5.93
2022-11-06T02:45:42.108Z,6.10
2022-11-06T02:46:07.404Z,6.03
2022-11-06T02:46:33.882Z,6.20
2022-11-06T02:46:57.596Z,6.30
2022-11-06T02:47:20.822Z,6.10
2022-11-06T02:47:46.509Z,5.93
2022-11-06T02:48:12.426Z,5.95
2022-11-06T02:48:39.050Z,6.00
2022-11-06T02:49:04.057Z,5.90
2022-11-06T02:49:28.836Z,5.90
2022-11-06T02:49:53.353Z,6.28
2022-11-06T02:50:17.941Z,5.85
2022-11-06T02:50:45.045Z,5.50
2022-11-06T02:51:10.930Z,5.50
2022-11-06T02:51:34.511Z,5.68
2022-11-06T02:52:02.871Z,5.18
2022-11-06T02:52:29.352Z,5.07
2022-11-06T02:52:53.844Z,5.18
2022-11-06T02:53:17.095Z,5.30
2022-11-06T02:53:42.567Z,5.07
2022-11-06T02:54:06.027Z,5.20
2022-11-06T02:54:29.414Z,4.88
2022-11-06T02:54:55.047Z,5.07
2022-11-06T02:55:19.061Z,4.95
2022-11-06T02:55:44.137Z,5.32
2022-11-06T02:56:08.648Z,5.43
2022-11-06T02:56:35.236Z,4.88
2022-11-06T02:56:59.238Z,4.85
2022-11-06T02:57:25.762Z,4.85
2022-11-06T02:57:52.646Z,4.70
2022-11-06T02:58:17.051Z,5.18
2022-11-06T02:58:44.813Z,5.03
2022-11-06T02:59:11.446Z,4.90
2022-11-06T02:59:39.607Z,4.90
2022-11-06T03:00:04.804Z,5.18
2022-11-06T03:00:28.024Z,5.15
2022-11-06T03:00:56.202Z,5.20
2022-11-06T03:01:21.976Z,5.18
2022-11-06T03:01:46.487Z,5.43
2022-11-06T03:02:13.426Z,5.55
2022-11-06T03:02:40.767Z,5.25
2022-11-06T03:03:09.924Z,4.85
2022-11-06T03:03:35.836Z,5.10
2022-11-06T03:04:02.672Z,5.40
2022-11-06T03:04:28.541Z,5.15
2022-11-06T03:04:55.810Z,5.30
2022-11-06T03:05:22.027Z,5.30
2022-11-06T03:05:50.102Z,5.13
2022-11-06T03:06:14.407Z,5.10
2022-11-06T03:06:40.006Z,5.55
2022-11-06T03:07:06.246Z,5.40
2022-11-06T03:07:31.543Z,5.65
2022-11-06T03:07:57.477Z,5.60
2022-11-06T03:08:23.777Z,5.40
2022-11-06T03:08:50.096Z,5.65
2022-11-06T03:09:14.998Z,5.47
2022-11-06T03:09:40.740Z,5.53
2022-11-06T03:10:03.651Z,5.60
2022-11-06T03:10:31.847Z,5.60
2022-11-06T03:10:59.731Z,5.15
2022-11-06T03:11:23.366Z,5.13
2022-11-06T03:11:48.239Z,5.50
2022-11-06T03:12:16.330Z,5.03
2022-11-06T03:12:48.005Z,5.50
2022-11-06T03:13:15.203Z,5.40
2022-11-06T03:13:44.329Z,5.18
2022-11-06T03:14:09.281Z,5.20
2022-11-06T03:14:36.488Z,5.05
2022-11-06T03:15:00.931Z,4.97
2022-11-06T03:15:30.881Z,5.25
2022-11-06T03:15:58.578Z,5.22
2022-11-06T03:16:33.916Z,4.80
2022-11-06T03:16:58.306Z,5.18
2022-11-06T03:17:22.646Z,5.00
2022-11-06T03:17:47.052Z,5.10
2022-11-06T03:18:12.610Z,4.90
2022-11-06T03:18:37.131Z,5.63
2022-11-06T03:19:06.672Z,5.57
2022-11-06T03:19:31.537Z,5.47
2022-11-06T03:19:56.161Z,4.93
2022-11-06T03:20:22.941Z,5.10
2022-11-06T03:20:53.937Z,5.20
2022-11-06T03:21:21.761Z,5.30
2022-11-06T03:21:51.351Z,4.93
2022-11-06T03:22:15.092Z,5.03
2022-11-06T03:22:40.981Z,5.13
2022-11-06T03:23:07.846Z,5.30
2022-11-06T03:23:34.787Z,5.03
2022-11-06T03:23:59.381Z,4.78
2022-11-06T03:24:30.830Z,5.03
2022-11-06T03:25:00.416Z,4.75
2022-11-06T03:25:24.631Z,5.05
2022-11-06T03:25:53.283Z,4.85
2022-11-06T03:26:21.872Z,4.70
2022-11-06T03:26:46.586Z,4.47
2022-11-06T03:27:11.086Z,4.53
2022-11-06T03:27:35.371Z,4.50
2022-11-06T03:28:04.987Z,4.75
2022-11-06T03:28:29.966Z,5.00
2022-11-06T03:28:53.446Z,5.30
2022-11-06T03:29:21.800Z,5.00
2022-11-06T03:29:46.012Z,4.95
2022-11-06T03:30:16.233Z,4.45
2022-11-06T03:30:42.921Z,4.20
2022-11-06T03:31:06.812Z,4.90
2022-11-06T03:31:35.258Z,5.20
2022-11-06T03:31:59.412Z,4.82
2022-11-06T03:32:29.280Z,4.20
2022-11-06T03:32:54.092Z,4.53
2022-11-06T03:33:19.313Z,4.53
2022-11-06T03:33:43.228Z,4.10
2022-11-06T03:34:07.171Z,4.40
2022-11-06T03:34:32.663Z,4.63
2022-11-06T03:35:00.864Z,4.53
2022-11-06T03:35:25.524Z,4.72
2022-11-06T03:35:52.208Z,4.40
2022-11-06T03:36:16.629Z,4.47
2022-11-06T03:36:42.126Z,4.50
2022-11-06T03:37:05.983Z,4.10
2022-11-06T03:37:32.683Z,4.07
2022-11-06T03:38:00.157Z,4.38
2022-11-06T03:38:24.322Z,4.03
2022-11-06T03:38:51.969Z,4.00
2022-11-06T03:39:16.164Z,4.03
2022-11-06T03:39:44.127Z,3.70
2022-11-06T03:40:09.997Z,3.90
2022-11-06T03:40:34.383Z,3.80
2022-11-06T03:40:59.863Z,3.75
2022-11-06T03:41:26.563Z,3.90
2022-11-06T03:41:53.534Z,3.88
2022-11-06T03:42:17.650Z,4.15
2022-11-06T03:42:40.406Z,4.00
2022-11-06T03:43:05.383Z,3.90
2022-11-06T03:43:30.299Z,3.88
2022-11-06T03:43:54.560Z,4.00
2022-11-06T03:44:18.848Z,4.15
2022-11-06T03:44:43.537Z,4.15
2022-11-06T03:45:08.457Z,4.40
2022-11-06T03:45:34.261Z,4.00
2022-11-06T03:45:56.992Z,3.83
2022-11-06T03:46:22.091Z,3.97
2022-11-06T03:46:49.847Z,4.15
2022-11-06T03:47:14.953Z,4.20
2022-11-06T03:47:38.591Z,4.07
2022-11-06T03:48:03.878Z,4.00
2022-11-06T03:48:29.421Z,4.28
2022-11-06T03:48:53.935Z,4.20
2022-11-06T03:49:18.193Z,4.45
2022-11-06T03:49:43.890Z,4.45
2022-11-06T03:50:09.038Z,4.65
2022-11-06T03:50:34.203Z,4.40
2022-11-06T03:50:58.884Z,4.30
2022-11-06T03:51:23.186Z,4.20
2022-11-06T03:51:47.843Z,4.00
2022-11-06T03:52:13.449Z,3.83
2022-11-06T03:52:38.573Z,3.88
2022-11-06T03:53:05.084Z,4.22
2022-11-06T03:53:29.257Z,4.35
2022-11-06T03:53:52.492Z,4.35
2022-11-06T03:54:18.003Z,4.70
2022-11-06T03:54:42.353Z,4.53
2022-11-06T03:55:07.357Z,4.38
2022-11-06T03:55:32.575Z,4.70
2022-11-06T03:55:59.860Z,4.47
2022-11-06T03:56:24.422Z,3.90
2022-11-06T03:56:51.369Z,3.88
2022-11-06T03:57:18.199Z,3.95
2022-11-06T03:57:43.861Z,3.80
2022-11-06T03:58:09.073Z,4.03
2022-11-06T03:58:36.096Z,3.80
2022-11-06T03:59:01.281Z,4.10
2022-11-06T03:59:25.402Z,3.85
2022-11-06T03:59:52.208Z,4.00
2022-11-06T04:00:17.227Z,4.13
2022-11-06T04:00:40.717Z,3.78
2022-11-06T04:01:05.833Z,3.97
2022-11-06T04:01:29.438Z,4.13
2022-11-06T04:01:54.019Z,4.20
2022-11-06T04:02:19.377Z,4.30
2022-11-06T04:02:44.214Z,4.20
2022-11-06T04:03:08.562Z,4.07
2022-11-06T04:03:34.093Z,4.20
2022-11-06T04:04:00.323Z,4.13
2022-11-06T04:04:25.288Z,4.10
2022-11-06T04:04:51.876Z,4.13
2022-11-06T04:05:17.783Z,4.30
2022-11-06T04:05:44.477Z,4.00
2022-11-06T04:06:10.684Z,4.05
2022-11-06T04:06:35.692Z,4.18
2022-11-06T04:07:00.499Z,4.10
2022-11-06T04:07:25.509Z,3.88
2022-11-06T04:08:08.482Z,4.05
2022-11-06T04:08:49.509Z,4.13
2022-11-06T04:09:32.335Z,4.20
2022-11-06T04:10:16.015Z,3.92
2022-11-06T04:10:58.698Z,4.00
2022-11-06T04:11:41.208Z,4.38
2022-11-06T04:12:23.527Z,4.05
2022-11-06T04:13:05.180Z,4.05
2022-11-06T04:13:49.603Z,3.97
2022-11-06T04:14:12.963Z,4.07
2022-11-06T04:14:39.208Z,4.28
2022-11-06T04:15:01.950Z,3.90
2022-11-06T04:15:27.232Z,4.03
2022-11-06T04:15:54.740Z,3.92
2022-11-06T04:16:17.508Z,4.20
2022-11-06T04:16:43.624Z,4.07
2022-11-06T04:17:07.964Z,3.95
2022-11-06T04:17:30.748Z,3.75
2022-11-06T04:17:55.818Z,4.30
2022-11-06T04:18:18.943Z,4.32
2022-11-06T04:18:44.594Z,4.68
2022-11-06T04:19:09.479Z,4.40
2022-11-06T04:19:32.101Z,4.45
2022-11-06T04:20:05.273Z,4.30
2022-11-06T04:20:50.899Z,4.10
2022-11-06T04:21:26.073Z,4.38
2022-11-06T04:22:05.459Z,4.82
2022-11-06T04:22:44.666Z,4.53
2022-11-06T04:23:12.971Z,4.32
2022-11-06T04:23:39.833Z,4.80
2022-11-06T04:24:27.688Z,4.90
2022-11-06T04:25:15.980Z,4.68
2022-11-06T04:26:04.945Z,4.85
2022-11-06T04:26:39.319Z,4.60
2022-11-06T04:27:24.770Z,4.70
2022-11-06T04:27:56.847Z,4.60
2022-11-06T04:28:25.609Z,4.28
2022-11-06T04:28:53.294Z,4.70
2022-11-06T04:29:21.292Z,4.80
2022-11-06T04:29:54.578Z,4.63
2022-11-06T04:30:20.656Z,4.68
2022-11-06T04:30:49.123Z,4.72
2022-11-06T04:31:13.012Z,5.00
2022-11-06T04:31:42.268Z,5.10
2022-11-06T04:32:11.363Z,5.40
2022-11-06T04:32:42.923Z,5.47
2022-11-06T04:33:08.533Z,4.78
2022-11-06T04:33:35.148Z,5.03
2022-11-06T04:33:59.114Z,4.90
2022-11-06T04:34:25.603Z,4.97
2022-11-06T04:34:50.618Z,4.70
2022-11-06T04:35:15.925Z,5.10
2022-11-06T04:35:54.009Z,4.60
2022-11-06T04:36:24.473Z,4.90
2022-11-06T04:36:47.862Z,5.00
2022-11-06T04:37:14.763Z,5.18
2022-11-06T04:37:40.103Z,5.00
2022-11-06T04:38:05.183Z,4.60
2022-11-06T04:38:34.319Z,4.50
2022-11-06T04:39:01.125Z,4.60
2022-11-06T04:39:27.365Z,4.68
2022-11-06T04:39:54.309Z,4.70
2022-11-06T04:40:21.697Z,4.82
2022-11-06T04:40:48.415Z,5.07
2022-11-06T04:41:15.244Z,4.70
2022-11-06T04:41:41.130Z,4.80
2022-11-06T04:42:08.249Z,4.85
2022-11-06T04:42:37.257Z,4.70
2022-11-06T04:43:02.088Z,4.88
2022-11-06T04:43:28.833Z,5.43
2022-11-06T04:43:56.834Z,5.18
2022-11-06T04:44:24.223Z,5.10
2022-11-06T04:44:48.975Z,5.45
2022-11-06T04:45:13.739Z,5.30
2022-11-06T04:45:38.240Z,5.20
2022-11-06T04:46:03.103Z,5.07
2022-11-06T04:46:28.073Z,5.15
2022-11-06T04:46:53.556Z,5.20
2022-11-06T04:47:18.098Z,5.45
2022-11-06T04:47:43.213Z,5.05
2022-11-06T04:48:08.634Z,5.05
2022-11-06T04:48:31.329Z,4.97
2022-11-06T04:48:54.004Z,5.28
2022-11-06T04:49:16.697Z,5.32
2022-11-06T04:49:44.444Z,5.15
2022-11-06T04:50:08.254Z,5.20
2022-11-06T04:50:32.954Z,5.15
2022-11-06T04:50:59.678Z,5.25
2022-11-06T04:51:24.333Z,5.20
2022-11-06T04:51:47.064Z,5.40
2022-11-06T04:52:14.061Z,5.25
2022-11-06T04:52:38.905Z,5.25
2022-11-06T04:53:04.268Z,5.10
2022-11-06T04:53:26.958Z,5.15
2022-11-06T04:53:49.924Z,4.70
2022-11-06T04:54:15.949Z,4.97
2022-11-06T04:54:38.639Z,5.30
2022-11-06T04:55:03.849Z,5.22
2022-11-06T04:55:26.565Z,5.43
2022-11-06T04:55:52.804Z,5.35
2022-11-06T04:56:23.097Z,5.10
2022-11-06T04:56:48.228Z,4.80
2022-11-06T04:57:11.183Z,5.00
2022-11-06T04:57:33.809Z,4.80
2022-11-06T04:57:58.729Z,4.72
2022-11-06T04:58:21.410Z,5.22
2022-11-06T04:58:47.076Z,5.43
2022-11-06T04:59:12.436Z,5.40
2022-11-06T04:59:36.168Z,5.03
2022-11-06T05:00:01.828Z,4.90
2022-11-06T05:00:24.585Z,5.18
2022-11-06T05:00:50.730Z,5.13
2022-11-06T05:01:13.805Z,5.68
2022-11-06T05:01:39.959Z,5.50
2022-11-06T05:02:03.114Z,5.50
2022-11-06T05:02:28.327Z,5.38
2022-11-06T05:02:51.034Z,5.13
2022-11-06T05:03:15.955Z,4.90
2022-11-06T05:03:38.659Z,5.15
2022-11-06T05:04:03.493Z,4.70
2022-11-06T05:04:26.250Z,5.30
2022-11-06T05:04:51.393Z,5.32
2022-11-06T05:05:14.148Z,5.05
2022-11-06T05:05:36.829Z,5.50
2022-11-06T05:06:01.759Z,5.38
2022-11-06T05:06:29.995Z,5.55
2022-11-06T05:06:53.440Z,5.18
2022-11-06T05:07:17.929Z,5.40
2022-11-06T05:07:43.038Z,5.43
2022-11-06T05:08:07.919Z,5.15
2022-11-06T05:08:32.796Z,5.07
2022-11-06T05:08:57.800Z,5.20
2022-11-06T05:09:20.519Z,4.93
2022-11-06T05:09:45.750Z,5.85
2022-11-06T05:10:09.869Z,5.53
2022-11-06T05:10:32.597Z,5.40
2022-11-06T05:10:55.370Z,5.30
2022-11-06T05:11:20.184Z,5.32
2022-11-06T05:11:42.879Z,5.40
2022-11-06T05:12:09.044Z,5.20
2022-11-06T05:12:32.801Z,5.68
2022-11-06T05:12:55.564Z,5.80
2022-11-06T05:13:20.498Z,5.55
2022-11-06T05:13:43.198Z,5.57
2022-11-06T05:14:06.135Z,5.28
2022-11-06T05:14:33.466Z,5.40
2022-11-06T05:14:56.225Z,5.20
2022-11-06T05:15:21.268Z,5.10
2022-11-06T05:15:47.215Z,5.25
2022-11-06T05:16:12.174Z,5.15
2022-11-06T05:16:35.220Z,5.32
2022-11-06T05:17:00.358Z,4.93
2022-11-06T05:17:23.060Z,5.18
2022-11-06T05:17:48.238Z,5.15
2022-11-06T05:18:11.460Z,4.88
2022-11-06T05:18:36.893Z,4.90
2022-11-06T05:19:02.999Z,4.85
2022-11-06T05:19:25.703Z,5.00
2022-11-06T05:19:50.894Z,4.80
2022-11-06T05:20:16.799Z,5.10
2022-11-06T05:20:44.178Z,5.20
2022-11-06T05:21:25.472Z,5.07
2022-11-06T05:22:06.883Z,4.78
2022-11-06T05:22:48.249Z,5.07
2022-11-06T05:23:13.480Z,5.28
2022-11-06T05:23:38.399Z,5.10
2022-11-06T05:24:01.164Z,5.10
2022-11-06T05:24:27.091Z,5.38
2022-11-06T05:24:49.805Z,5.03
2022-11-06T05:25:15.046Z,5.30
2022-11-06T05:25:40.264Z,5.50
2022-11-06T05:26:02.987Z,5.20
2022-11-06T05:26:25.727Z,4.90
2022-11-06T05:26:56.109Z,4.90
2022-11-06T05:27:24.090Z,4.90
2022-11-06T05:27:49.995Z,5.10
2022-11-06T05:28:12.983Z,4.90
2022-11-06T05:28:39.359Z,5.05
2022-11-06T05:29:02.193Z,4.90
2022-11-06T05:29:24.873Z,4.78
2022-11-06T05:29:51.130Z,4.80
2022-11-06T05:30:14.025Z,4.85
2022-11-06T05:30:39.206Z,4.88
2022-11-06T05:31:04.346Z,5.18
2022-11-06T05:31:27.901Z,5.18
2022-11-06T05:31:54.387Z,5.70
2022-11-06T05:32:17.121Z,5.60
2022-11-06T05:32:42.781Z,5.40
2022-11-06T05:33:05.419Z,5.43
2022-11-06T05:33:31.092Z,5.32
2022-11-06T05:33:53.800Z,5.78
2022-11-06T05:34:16.517Z,5.43
2022-11-06T05:34:39.220Z,5.10
2022-11-06T05:35:01.971Z,5.07
2022-11-06T05:35:28.897Z,4.80
2022-11-06T05:35:56.391Z,5.03
2022-11-06T05:36:19.156Z,5.05
2022-11-06T05:36:44.271Z,5.10
2022-11-06T05:37:06.871Z,5.00
2022-11-06T05:37:35.533Z,4.85
2022-11-06T05:38:00.986Z,5.22
2022-11-06T05:38:23.738Z,5.20
2022-11-06T05:38:46.463Z,4.97
2022-11-06T05:39:09.371Z,5.05
2022-11-06T05:39:39.043Z,5.03
2022-11-06T05:40:05.638Z,5.22
2022-11-06T05:40:31.247Z,4.55
2022-11-06T05:40:53.930Z,5.00
2022-11-06T05:41:16.706Z,5.03
2022-11-06T05:41:42.252Z,5.18
2022-11-06T05:42:05.376Z,5.05
2022-11-06T05:42:28.304Z,5.00